sensor_id;sensor_type;location;lat;lon;timestamp;temperature;humidity
70366;DHT22;57787;48.216;12.396;2023-05-07T00:02:08;11.70;86.10
70366;DHT22;57787;48.216;12.396;2023-05-07T00:04:36;11.70;86.80
70366;DHT22;57787;48.216;12.396;2023-05-07T00:07:05;11.60;85.50
70366;DHT22;57787;48.216;12.396;2023-05-07T00:09:32;11.60;86.00
70366;DHT22;57787;48.216;12.396;2023-05-07T00:12:02;11.60;86.70
70366;DHT22;57787;48.216;12.396;2023-05-07T00:14:28;11.60;85.90
70366;DHT22;57787;48.216;12.396;2023-05-07T00:16:56;11.50;85.40
70366;DHT22;57787;48.216;12.396;2023-05-07T00:19:22;11.60;86.50
70366;DHT22;57787;48.216;12.396;2023-05-07T00:21:52;11.50;86.10
70366;DHT22;57787;48.216;12.396;2023-05-07T00:24:23;11.40;86.00
70366;DHT22;57787;48.216;12.396;2023-05-07T00:26:50;11.40;86.00
70366;DHT22;57787;48.216;12.396;2023-05-07T00:29:16;11.40;86.40
70366;DHT22;57787;48.216;12.396;2023-05-07T00:31:43;11.30;86.00
70366;DHT22;57787;48.216;12.396;2023-05-07T00:34:10;11.30;86.30
70366;DHT22;57787;48.216;12.396;2023-05-07T00:36:40;11.30;86.40
70366;DHT22;57787;48.216;12.396;2023-05-07T00:39:07;11.30;86.60
70366;DHT22;57787;48.216;12.396;2023-05-07T00:41:34;11.40;87.60
70366;DHT22;57787;48.216;12.396;2023-05-07T00:44:03;11.30;87.30
70366;DHT22;57787;48.216;12.396;2023-05-07T00:46:30;11.40;87.20
70366;DHT22;57787;48.216;12.396;2023-05-07T00:48:57;11.30;86.70
70366;DHT22;57787;48.216;12.396;2023-05-07T00:51:25;11.30;86.90
70366;DHT22;57787;48.216;12.396;2023-05-07T00:53:53;11.30;87.40
70366;DHT22;57787;48.216;12.396;2023-05-07T00:56:21;11.30;86.60
70366;DHT22;57787;48.216;12.396;2023-05-07T00:58:48;11.30;87.60
70366;DHT22;57787;48.216;12.396;2023-05-07T01:01:16;11.30;87.30
70366;DHT22;57787;48.216;12.396;2023-05-07T01:03:43;11.30;87.00
70366;DHT22;57787;48.216;12.396;2023-05-07T01:06:10;11.30;87.60
70366;DHT22;57787;48.216;12.396;2023-05-07T01:08:39;11.30;87.60
70366;DHT22;57787;48.216;12.396;2023-05-07T01:11:07;11.20;87.20
70366;DHT22;57787;48.216;12.396;2023-05-07T01:13:34;11.20;86.20
70366;DHT22;57787;48.216;12.396;2023-05-07T01:16:02;11.20;86.70
70366;DHT22;57787;48.216;12.396;2023-05-07T01:18:29;11.20;86.70
70366;DHT22;57787;48.216;12.396;2023-05-07T01:20:57;11.20;87.90
70366;DHT22;57787;48.216;12.396;2023-05-07T01:23:25;11.20;86.80
70366;DHT22;57787;48.216;12.396;2023-05-07T01:25:52;11.10;86.50
70366;DHT22;57787;48.216;12.396;2023-05-07T01:28:19;11.10;86.60
70366;DHT22;57787;48.216;12.396;2023-05-07T01:30:49;11.10;87.20
70366;DHT22;57787;48.216;12.396;2023-05-07T01:33:17;11.00;87.00
70366;DHT22;57787;48.216;12.396;2023-05-07T01:35:45;11.10;88.00
70366;DHT22;57787;48.216;12.396;2023-05-07T01:38:12;11.10;88.00
70366;DHT22;57787;48.216;12.396;2023-05-07T01:40:40;11.00;87.10
70366;DHT22;57787;48.216;12.396;2023-05-07T01:43:06;11.10;87.50
70366;DHT22;57787;48.216;12.396;2023-05-07T01:45:33;11.10;87.70
70366;DHT22;57787;48.216;12.396;2023-05-07T01:48:01;11.10;87.60
70366;DHT22;57787;48.216;12.396;2023-05-07T01:50:28;11.10;88.00
70366;DHT22;57787;48.216;12.396;2023-05-07T01:52:55;11.00;87.80
70366;DHT22;57787;48.216;12.396;2023-05-07T01:55:22;11.00;87.60
70366;DHT22;57787;48.216;12.396;2023-05-07T01:57:49;11.00;87.40
70366;DHT22;57787;48.216;12.396;2023-05-07T02:00:17;11.00;87.10
70366;DHT22;57787;48.216;12.396;2023-05-07T02:02:44;11.00;86.40
70366;DHT22;57787;48.216;12.396;2023-05-07T02:05:11;11.00;86.80
70366;DHT22;57787;48.216;12.396;2023-05-07T02:07:38;11.00;87.20
70366;DHT22;57787;48.216;12.396;2023-05-07T02:10:05;11.00;87.80
70366;DHT22;57787;48.216;12.396;2023-05-07T02:12:32;11.00;87.90
70366;DHT22;57787;48.216;12.396;2023-05-07T02:15:00;11.00;88.00
70366;DHT22;57787;48.216;12.396;2023-05-07T02:17:26;11.00;87.30
70366;DHT22;57787;48.216;12.396;2023-05-07T02:19:53;10.90;87.30
70366;DHT22;57787;48.216;12.396;2023-05-07T02:22:20;10.90;87.30
70366;DHT22;57787;48.216;12.396;2023-05-07T02:24:47;10.90;87.40
70366;DHT22;57787;48.216;12.396;2023-05-07T02:27:14;10.90;87.80
70366;DHT22;57787;48.216;12.396;2023-05-07T02:29:41;10.90;87.50
70366;DHT22;57787;48.216;12.396;2023-05-07T02:32:08;10.80;86.90
70366;DHT22;57787;48.216;12.396;2023-05-07T02:34:35;10.80;87.30
70366;DHT22;57787;48.216;12.396;2023-05-07T02:37:01;10.90;88.20
70366;DHT22;57787;48.216;12.396;2023-05-07T02:39:28;10.80;87.30
70366;DHT22;57787;48.216;12.396;2023-05-07T02:41:55;10.80;87.30
70366;DHT22;57787;48.216;12.396;2023-05-07T02:44:22;10.80;87.20
70366;DHT22;57787;48.216;12.396;2023-05-07T02:46:49;10.80;88.40
70366;DHT22;57787;48.216;12.396;2023-05-07T02:49:16;10.80;87.90
70366;DHT22;57787;48.216;12.396;2023-05-07T02:51:42;10.80;87.10
70366;DHT22;57787;48.216;12.396;2023-05-07T02:54:09;10.80;88.20
70366;DHT22;57787;48.216;12.396;2023-05-07T02:56:36;10.80;87.50
70366;DHT22;57787;48.216;12.396;2023-05-07T02:59:02;10.80;87.30
70366;DHT22;57787;48.216;12.396;2023-05-07T03:01:29;10.70;87.60
70366;DHT22;57787;48.216;12.396;2023-05-07T03:03:56;10.80;88.10
70366;DHT22;57787;48.216;12.396;2023-05-07T03:06:23;10.70;88.10
70366;DHT22;57787;48.216;12.396;2023-05-07T03:08:50;10.80;87.80
70366;DHT22;57787;48.216;12.396;2023-05-07T03:11:16;10.70;88.40
70366;DHT22;57787;48.216;12.396;2023-05-07T03:13:44;10.70;88.40
70366;DHT22;57787;48.216;12.396;2023-05-07T03:16:10;10.70;88.40
70366;DHT22;57787;48.216;12.396;2023-05-07T03:18:37;10.80;88.80
70366;DHT22;57787;48.216;12.396;2023-05-07T03:21:04;10.70;88.10
70366;DHT22;57787;48.216;12.396;2023-05-07T03:23:31;10.70;88.10
70366;DHT22;57787;48.216;12.396;2023-05-07T03:25:58;10.70;87.50
70366;DHT22;57787;48.216;12.396;2023-05-07T03:28:25;10.70;87.50
70366;DHT22;57787;48.216;12.396;2023-05-07T03:30:52;10.70;88.60
70366;DHT22;57787;48.216;12.396;2023-05-07T03:33:22;10.70;87.70
70366;DHT22;57787;48.216;12.396;2023-05-07T03:35:48;10.70;87.80
70366;DHT22;57787;48.216;12.396;2023-05-07T03:38:15;10.70;88.10
70366;DHT22;57787;48.216;12.396;2023-05-07T03:40:42;10.70;88.00
70366;DHT22;57787;48.216;12.396;2023-05-07T03:43:08;10.70;87.80
70366;DHT22;57787;48.216;12.396;2023-05-07T03:45:35;10.70;88.00
70366;DHT22;57787;48.216;12.396;2023-05-07T03:48:02;10.70;88.20
70366;DHT22;57787;48.216;12.396;2023-05-07T03:50:29;10.70;88.20
70366;DHT22;57787;48.216;12.396;2023-05-07T03:52:56;10.70;88.60
70366;DHT22;57787;48.216;12.396;2023-05-07T03:55:22;10.70;87.90
70366;DHT22;57787;48.216;12.396;2023-05-07T03:57:49;10.70;87.80
70366;DHT22;57787;48.216;12.396;2023-05-07T04:00:16;10.70;87.60
70366;DHT22;57787;48.216;12.396;2023-05-07T04:02:43;10.70;87.70
70366;DHT22;57787;48.216;12.396;2023-05-07T04:05:09;10.70;87.50
70366;DHT22;57787;48.216;12.396;2023-05-07T04:07:36;10.70;87.90
70366;DHT22;57787;48.216;12.396;2023-05-07T04:10:03;10.70;88.80
70366;DHT22;57787;48.216;12.396;2023-05-07T04:12:30;10.70;88.40
70366;DHT22;57787;48.216;12.396;2023-05-07T04:14:57;10.70;88.00
70366;DHT22;57787;48.216;12.396;2023-05-07T04:17:24;10.80;87.80
70366;DHT22;57787;48.216;12.396;2023-05-07T04:19:51;10.80;87.90
70366;DHT22;57787;48.216;12.396;2023-05-07T04:22:18;10.80;87.90
70366;DHT22;57787;48.216;12.396;2023-05-07T04:24:44;10.80;88.10
70366;DHT22;57787;48.216;12.396;2023-05-07T04:27:11;10.80;88.10
70366;DHT22;57787;48.216;12.396;2023-05-07T04:29:38;10.90;87.80
70366;DHT22;57787;48.216;12.396;2023-05-07T04:32:09;10.90;87.80
70366;DHT22;57787;48.216;12.396;2023-05-07T04:34:36;11.00;87.90
70366;DHT22;57787;48.216;12.396;2023-05-07T04:37:03;11.00;87.50
70366;DHT22;57787;48.216;12.396;2023-05-07T04:39:30;11.00;87.40
70366;DHT22;57787;48.216;12.396;2023-05-07T04:41:56;11.10;87.40
70366;DHT22;57787;48.216;12.396;2023-05-07T04:44:23;11.10;88.00
70366;DHT22;57787;48.216;12.396;2023-05-07T04:46:50;11.20;88.20
70366;DHT22;57787;48.216;12.396;2023-05-07T04:49:16;11.30;87.90
70366;DHT22;57787;48.216;12.396;2023-05-07T04:51:44;11.30;87.70
70366;DHT22;57787;48.216;12.396;2023-05-07T04:54:11;11.40;87.60
70366;DHT22;57787;48.216;12.396;2023-05-07T04:56:38;11.50;87.70
70366;DHT22;57787;48.216;12.396;2023-05-07T04:59:04;11.60;87.50
70366;DHT22;57787;48.216;12.396;2023-05-07T05:01:32;11.70;87.40
70366;DHT22;57787;48.216;12.396;2023-05-07T05:03:59;11.70;87.20
70366;DHT22;57787;48.216;12.396;2023-05-07T05:06:27;11.80;87.20
70366;DHT22;57787;48.216;12.396;2023-05-07T05:08:54;12.00;87.20
70366;DHT22;57787;48.216;12.396;2023-05-07T05:11:21;12.10;87.20
70366;DHT22;57787;48.216;12.396;2023-05-07T05:13:49;12.30;87.10
70366;DHT22;57787;48.216;12.396;2023-05-07T05:16:16;12.40;86.90
70366;DHT22;57787;48.216;12.396;2023-05-07T05:18:42;12.60;86.70
70366;DHT22;57787;48.216;12.396;2023-05-07T05:21:09;12.80;86.60
70366;DHT22;57787;48.216;12.396;2023-05-07T05:23:36;13.10;86.90
70366;DHT22;57787;48.216;12.396;2023-05-07T05:26:03;13.80;86.10
70366;DHT22;57787;48.216;12.396;2023-05-07T05:28:30;14.50;84.30
70366;DHT22;57787;48.216;12.396;2023-05-07T05:30:57;15.10;83.20
70366;DHT22;57787;48.216;12.396;2023-05-07T05:33:28;15.90;81.90
70366;DHT22;57787;48.216;12.396;2023-05-07T05:35:55;16.60;78.20
70366;DHT22;57787;48.216;12.396;2023-05-07T05:38:23;17.20;76.30
70366;DHT22;57787;48.216;12.396;2023-05-07T05:40:49;18.00;73.60
70366;DHT22;57787;48.216;12.396;2023-05-07T05:43:16;18.50;70.10
70366;DHT22;57787;48.216;12.396;2023-05-07T05:45:43;19.00;67.60
70366;DHT22;57787;48.216;12.396;2023-05-07T05:48:10;19.40;66.20
70366;DHT22;57787;48.216;12.396;2023-05-07T05:50:41;19.70;65.80
70366;DHT22;57787;48.216;12.396;2023-05-07T05:53:09;20.00;64.90
70366;DHT22;57787;48.216;12.396;2023-05-07T05:55:36;20.00;63.70
70366;DHT22;57787;48.216;12.396;2023-05-07T05:58:03;20.10;63.10
70366;DHT22;57787;48.216;12.396;2023-05-07T06:00:30;20.10;64.00
70366;DHT22;57787;48.216;12.396;2023-05-07T06:02:58;20.10;63.10
70366;DHT22;57787;48.216;12.396;2023-05-07T06:05:25;20.00;63.50
70366;DHT22;57787;48.216;12.396;2023-05-07T06:07:51;19.80;62.40
70366;DHT22;57787;48.216;12.396;2023-05-07T06:10:18;19.60;63.20
70366;DHT22;57787;48.216;12.396;2023-05-07T06:12:45;19.40;64.40
70366;DHT22;57787;48.216;12.396;2023-05-07T06:15:12;19.30;65.20
70366;DHT22;57787;48.216;12.396;2023-05-07T06:17:38;19.10;65.10
70366;DHT22;57787;48.216;12.396;2023-05-07T06:20:05;19.00;65.90
70366;DHT22;57787;48.216;12.396;2023-05-07T06:22:32;19.00;66.10
70366;DHT22;57787;48.216;12.396;2023-05-07T06:25:00;19.00;66.70
70366;DHT22;57787;48.216;12.396;2023-05-07T06:27:27;18.90;67.00
70366;DHT22;57787;48.216;12.396;2023-05-07T06:29:54;18.80;66.40
70366;DHT22;57787;48.216;12.396;2023-05-07T06:32:21;18.90;67.30
70366;DHT22;57787;48.216;12.396;2023-05-07T06:34:48;18.90;67.80
70366;DHT22;57787;48.216;12.396;2023-05-07T06:37:15;18.90;67.70
70366;DHT22;57787;48.216;12.396;2023-05-07T06:39:42;19.00;67.30
70366;DHT22;57787;48.216;12.396;2023-05-07T06:42:08;19.10;67.10
70366;DHT22;57787;48.216;12.396;2023-05-07T06:44:35;19.10;66.10
70366;DHT22;57787;48.216;12.396;2023-05-07T06:47:03;19.10;67.00
70366;DHT22;57787;48.216;12.396;2023-05-07T06:49:30;19.20;66.90
70366;DHT22;57787;48.216;12.396;2023-05-07T06:51:57;19.30;68.10
70366;DHT22;57787;48.216;12.396;2023-05-07T06:54:24;19.40;66.90
70366;DHT22;57787;48.216;12.396;2023-05-07T06:56:51;19.50;66.90
70366;DHT22;57787;48.216;12.396;2023-05-07T06:59:19;19.60;67.00
70366;DHT22;57787;48.216;12.396;2023-05-07T07:01:46;19.70;67.10
70366;DHT22;57787;48.216;12.396;2023-05-07T07:04:12;19.70;65.10
70366;DHT22;57787;48.216;12.396;2023-05-07T07:06:40;19.70;64.70
70366;DHT22;57787;48.216;12.396;2023-05-07T07:09:07;19.60;64.50
70366;DHT22;57787;48.216;12.396;2023-05-07T07:11:33;19.50;66.70
70366;DHT22;57787;48.216;12.396;2023-05-07T07:14:00;19.60;65.20
70366;DHT22;57787;48.216;12.396;2023-05-07T07:16:27;19.60;64.40
70366;DHT22;57787;48.216;12.396;2023-05-07T07:18:54;19.70;64.70
70366;DHT22;57787;48.216;12.396;2023-05-07T07:21:20;19.90;66.10
70366;DHT22;57787;48.216;12.396;2023-05-07T07:23:48;20.00;65.40
70366;DHT22;57787;48.216;12.396;2023-05-07T07:26:16;20.10;65.30
70366;DHT22;57787;48.216;12.396;2023-05-07T07:28:44;20.20;64.70
70366;DHT22;57787;48.216;12.396;2023-05-07T07:31:12;20.30;64.30
70366;DHT22;57787;48.216;12.396;2023-05-07T07:33:39;20.50;61.80
70366;DHT22;57787;48.216;12.396;2023-05-07T07:36:06;20.60;63.00
70366;DHT22;57787;48.216;12.396;2023-05-07T07:38:33;20.80;62.40
70366;DHT22;57787;48.216;12.396;2023-05-07T07:41:00;20.80;62.60
70366;DHT22;57787;48.216;12.396;2023-05-07T07:43:27;20.90;61.50
70366;DHT22;57787;48.216;12.396;2023-05-07T07:45:54;21.00;61.30
70366;DHT22;57787;48.216;12.396;2023-05-07T07:48:21;21.10;62.20
70366;DHT22;57787;48.216;12.396;2023-05-07T07:50:48;21.20;61.60
70366;DHT22;57787;48.216;12.396;2023-05-07T07:53:16;21.30;60.60
70366;DHT22;57787;48.216;12.396;2023-05-07T07:55:42;21.40;60.30
70366;DHT22;57787;48.216;12.396;2023-05-07T07:58:09;21.60;59.70
70366;DHT22;57787;48.216;12.396;2023-05-07T08:00:36;21.60;59.70
70366;DHT22;57787;48.216;12.396;2023-05-07T08:03:02;21.60;58.80
70366;DHT22;57787;48.216;12.396;2023-05-07T08:05:31;21.60;58.40
70366;DHT22;57787;48.216;12.396;2023-05-07T08:07:58;21.60;58.30
70366;DHT22;57787;48.216;12.396;2023-05-07T08:10:25;21.60;59.20
70366;DHT22;57787;48.216;12.396;2023-05-07T08:12:52;21.60;58.10
70366;DHT22;57787;48.216;12.396;2023-05-07T08:15:19;21.70;58.80
70366;DHT22;57787;48.216;12.396;2023-05-07T08:17:45;21.80;60.70
70366;DHT22;57787;48.216;12.396;2023-05-07T08:20:13;22.00;60.80
70366;DHT22;57787;48.216;12.396;2023-05-07T08:22:40;22.00;58.90
70366;DHT22;57787;48.216;12.396;2023-05-07T08:25:07;22.30;61.10
70366;DHT22;57787;48.216;12.396;2023-05-07T08:27:37;22.50;61.60
70366;DHT22;57787;48.216;12.396;2023-05-07T08:30:06;22.50;60.00
70366;DHT22;57787;48.216;12.396;2023-05-07T08:32:33;22.80;59.30
70366;DHT22;57787;48.216;12.396;2023-05-07T08:35:00;22.70;59.30
70366;DHT22;57787;48.216;12.396;2023-05-07T08:37:27;22.80;57.80
70366;DHT22;57787;48.216;12.396;2023-05-07T08:39:54;22.80;57.80
70366;DHT22;57787;48.216;12.396;2023-05-07T08:42:21;22.80;58.60
70366;DHT22;57787;48.216;12.396;2023-05-07T08:44:49;23.00;60.20
70366;DHT22;57787;48.216;12.396;2023-05-07T08:47:19;23.20;57.40
70366;DHT22;57787;48.216;12.396;2023-05-07T08:49:48;23.20;56.70
70366;DHT22;57787;48.216;12.396;2023-05-07T08:52:15;23.40;56.90
70366;DHT22;57787;48.216;12.396;2023-05-07T08:54:43;23.50;55.90
70366;DHT22;57787;48.216;12.396;2023-05-07T08:57:14;23.60;56.90
70366;DHT22;57787;48.216;12.396;2023-05-07T08:59:41;23.50;54.80
70366;DHT22;57787;48.216;12.396;2023-05-07T09:02:08;23.40;55.60
70366;DHT22;57787;48.216;12.396;2023-05-07T09:04:35;23.30;55.70
70366;DHT22;57787;48.216;12.396;2023-05-07T09:07:02;23.40;54.30
70366;DHT22;57787;48.216;12.396;2023-05-07T09:09:32;23.40;54.30
70366;DHT22;57787;48.216;12.396;2023-05-07T09:11:59;23.60;54.20
70366;DHT22;57787;48.216;12.396;2023-05-07T09:14:27;23.80;55.40
70366;DHT22;57787;48.216;12.396;2023-05-07T09:16:54;23.80;54.90
70366;DHT22;57787;48.216;12.396;2023-05-07T09:19:24;23.90;55.90
70366;DHT22;57787;48.216;12.396;2023-05-07T09:22:00;23.70;52.90
70366;DHT22;57787;48.216;12.396;2023-05-07T09:24:29;23.30;54.00
70366;DHT22;57787;48.216;12.396;2023-05-07T09:27:00;23.40;53.60
70366;DHT22;57787;48.216;12.396;2023-05-07T09:29:28;23.10;54.50
70366;DHT22;57787;48.216;12.396;2023-05-07T09:31:56;23.00;55.60
70366;DHT22;57787;48.216;12.396;2023-05-07T09:34:23;22.90;54.80
70366;DHT22;57787;48.216;12.396;2023-05-07T09:36:50;22.80;56.20
70366;DHT22;57787;48.216;12.396;2023-05-07T09:39:17;22.70;55.90
70366;DHT22;57787;48.216;12.396;2023-05-07T09:41:44;22.70;55.60
70366;DHT22;57787;48.216;12.396;2023-05-07T09:44:13;22.70;56.30
70366;DHT22;57787;48.216;12.396;2023-05-07T09:46:43;22.80;55.80
70366;DHT22;57787;48.216;12.396;2023-05-07T09:49:16;22.90;55.30
70366;DHT22;57787;48.216;12.396;2023-05-07T09:51:48;22.80;54.10
70366;DHT22;57787;48.216;12.396;2023-05-07T09:54:15;22.80;53.10
70366;DHT22;57787;48.216;12.396;2023-05-07T09:56:43;22.90;53.30
70366;DHT22;57787;48.216;12.396;2023-05-07T09:59:15;22.90;53.20
70366;DHT22;57787;48.216;12.396;2023-05-07T10:01:42;23.20;54.50
70366;DHT22;57787;48.216;12.396;2023-05-07T10:04:12;23.60;55.50
70366;DHT22;57787;48.216;12.396;2023-05-07T10:06:39;23.80;51.00
70366;DHT22;57787;48.216;12.396;2023-05-07T10:09:07;24.00;52.10
70366;DHT22;57787;48.216;12.396;2023-05-07T10:11:34;24.20;47.20
70366;DHT22;57787;48.216;12.396;2023-05-07T10:14:01;24.30;47.30
70366;DHT22;57787;48.216;12.396;2023-05-07T10:16:34;24.50;48.50
70366;DHT22;57787;48.216;12.396;2023-05-07T10:19:03;24.70;49.20
70366;DHT22;57787;48.216;12.396;2023-05-07T10:21:31;25.00;47.80
70366;DHT22;57787;48.216;12.396;2023-05-07T10:24:04;25.10;46.50
70366;DHT22;57787;48.216;12.396;2023-05-07T10:26:36;25.10;47.40
70366;DHT22;57787;48.216;12.396;2023-05-07T10:29:06;25.20;45.40
70366;DHT22;57787;48.216;12.396;2023-05-07T10:34:07;25.20;44.70
70366;DHT22;57787;48.216;12.396;2023-05-07T10:36:34;25.10;44.10
70366;DHT22;57787;48.216;12.396;2023-05-07T10:39:04;25.10;44.90
70366;DHT22;57787;48.216;12.396;2023-05-07T10:41:31;25.20;44.50
70366;DHT22;57787;48.216;12.396;2023-05-07T10:43:59;25.00;44.00
70366;DHT22;57787;48.216;12.396;2023-05-07T10:46:28;24.60;44.50
70366;DHT22;57787;48.216;12.396;2023-05-07T10:51:29;24.10;44.70
70366;DHT22;57787;48.216;12.396;2023-05-07T10:56:39;23.90;44.10
70366;DHT22;57787;48.216;12.396;2023-05-07T11:04:22;24.00;44.70
70366;DHT22;57787;48.216;12.396;2023-05-07T11:15:07;24.20;43.00
70366;DHT22;57787;48.216;12.396;2023-05-07T11:17:34;24.30;40.90
70366;DHT22;57787;48.216;12.396;2023-05-07T11:20:03;24.40;40.60
70366;DHT22;57787;48.216;12.396;2023-05-07T11:25:00;24.40;40.50
70366;DHT22;57787;48.216;12.396;2023-05-07T11:27:29;24.40;40.80
70366;DHT22;57787;48.216;12.396;2023-05-07T11:29:56;24.40;39.00
70366;DHT22;57787;48.216;12.396;2023-05-07T11:32:33;24.40;39.60
70366;DHT22;57787;48.216;12.396;2023-05-07T11:35:00;24.60;40.90
70366;DHT22;57787;48.216;12.396;2023-05-07T11:37:27;24.60;38.30
70366;DHT22;57787;48.216;12.396;2023-05-07T11:40:05;24.50;38.40
70366;DHT22;57787;48.216;12.396;2023-05-07T11:42:34;24.50;37.50
70366;DHT22;57787;48.216;12.396;2023-05-07T11:45:01;24.60;37.70
70366;DHT22;57787;48.216;12.396;2023-05-07T11:47:29;24.70;40.40
70366;DHT22;57787;48.216;12.396;2023-05-07T11:49:56;24.70;38.50
70366;DHT22;57787;48.216;12.396;2023-05-07T11:52:23;24.70;39.10
70366;DHT22;57787;48.216;12.396;2023-05-07T11:54:51;24.80;40.00
70366;DHT22;57787;48.216;12.396;2023-05-07T11:57:18;25.00;40.10
70366;DHT22;57787;48.216;12.396;2023-05-07T11:59:45;25.00;40.50
70366;DHT22;57787;48.216;12.396;2023-05-07T12:02:17;25.20;39.80
70366;DHT22;57787;48.216;12.396;2023-05-07T12:04:44;25.20;38.90
70366;DHT22;57787;48.216;12.396;2023-05-07T12:07:15;25.30;41.90
70366;DHT22;57787;48.216;12.396;2023-05-07T12:09:42;25.40;43.30
70366;DHT22;57787;48.216;12.396;2023-05-07T12:12:09;25.40;42.30
70366;DHT22;57787;48.216;12.396;2023-05-07T12:14:39;25.30;41.30
70366;DHT22;57787;48.216;12.396;2023-05-07T12:17:10;25.10;43.40
70366;DHT22;57787;48.216;12.396;2023-05-07T12:19:37;25.00;43.20
70366;DHT22;57787;48.216;12.396;2023-05-07T12:22:04;24.80;42.10
70366;DHT22;57787;48.216;12.396;2023-05-07T12:24:44;24.70;42.50
70366;DHT22;57787;48.216;12.396;2023-05-07T12:27:12;24.50;42.40
70366;DHT22;57787;48.216;12.396;2023-05-07T12:29:39;24.60;42.90
70366;DHT22;57787;48.216;12.396;2023-05-07T12:32:07;24.60;41.50
70366;DHT22;57787;48.216;12.396;2023-05-07T12:34:39;24.70;40.60
70366;DHT22;57787;48.216;12.396;2023-05-07T12:37:05;24.80;40.60
70366;DHT22;57787;48.216;12.396;2023-05-07T12:39:32;25.00;42.50
70366;DHT22;57787;48.216;12.396;2023-05-07T12:41:59;25.20;41.30
70366;DHT22;57787;48.216;12.396;2023-05-07T12:44:30;25.20;40.40
70366;DHT22;57787;48.216;12.396;2023-05-07T12:46:57;25.00;40.20
70366;DHT22;57787;48.216;12.396;2023-05-07T12:49:24;24.90;41.20
70366;DHT22;57787;48.216;12.396;2023-05-07T12:51:51;24.80;41.30
70366;DHT22;57787;48.216;12.396;2023-05-07T12:54:29;24.80;40.50
70366;DHT22;57787;48.216;12.396;2023-05-07T12:57:06;24.70;42.60
70366;DHT22;57787;48.216;12.396;2023-05-07T12:59:34;24.80;41.50
70366;DHT22;57787;48.216;12.396;2023-05-07T13:02:01;24.90;40.20
70366;DHT22;57787;48.216;12.396;2023-05-07T13:04:28;25.10;40.90
70366;DHT22;57787;48.216;12.396;2023-05-07T13:06:55;25.20;39.80
70366;DHT22;57787;48.216;12.396;2023-05-07T13:09:21;25.30;41.00
70366;DHT22;57787;48.216;12.396;2023-05-07T13:11:48;25.40;39.90
70366;DHT22;57787;48.216;12.396;2023-05-07T13:14:16;25.30;39.40
70366;DHT22;57787;48.216;12.396;2023-05-07T13:16:43;25.30;41.20
70366;DHT22;57787;48.216;12.396;2023-05-07T13:19:10;25.30;39.10
70366;DHT22;57787;48.216;12.396;2023-05-07T13:21:38;25.30;40.10
70366;DHT22;57787;48.216;12.396;2023-05-07T13:24:04;25.50;41.30
70366;DHT22;57787;48.216;12.396;2023-05-07T13:26:34;25.60;40.80
70366;DHT22;57787;48.216;12.396;2023-05-07T13:29:01;25.70;38.00
70366;DHT22;57787;48.216;12.396;2023-05-07T13:31:28;25.70;38.00
70366;DHT22;57787;48.216;12.396;2023-05-07T13:33:55;25.70;38.30
70366;DHT22;57787;48.216;12.396;2023-05-07T13:36:23;25.70;37.50
70366;DHT22;57787;48.216;12.396;2023-05-07T13:38:50;25.50;38.50
70366;DHT22;57787;48.216;12.396;2023-05-07T13:41:18;25.30;38.20
70366;DHT22;57787;48.216;12.396;2023-05-07T13:43:46;25.30;38.50
70366;DHT22;57787;48.216;12.396;2023-05-07T13:46:15;25.40;37.60
70366;DHT22;57787;48.216;12.396;2023-05-07T13:48:43;25.40;38.50
70366;DHT22;57787;48.216;12.396;2023-05-07T13:51:11;25.40;39.10
70366;DHT22;57787;48.216;12.396;2023-05-07T13:53:38;25.50;37.70
70366;DHT22;57787;48.216;12.396;2023-05-07T13:56:06;25.60;37.20
70366;DHT22;57787;48.216;12.396;2023-05-07T13:58:34;25.70;37.80
70366;DHT22;57787;48.216;12.396;2023-05-07T14:01:14;25.70;36.70
70366;DHT22;57787;48.216;12.396;2023-05-07T14:03:40;25.70;36.10
70366;DHT22;57787;48.216;12.396;2023-05-07T14:06:08;25.70;36.20
70366;DHT22;57787;48.216;12.396;2023-05-07T14:08:35;25.80;38.00
70366;DHT22;57787;48.216;12.396;2023-05-07T14:11:03;25.90;36.40
70366;DHT22;57787;48.216;12.396;2023-05-07T14:13:29;26.00;36.00
70366;DHT22;57787;48.216;12.396;2023-05-07T14:15:57;26.20;37.00
70366;DHT22;57787;48.216;12.396;2023-05-07T14:18:24;26.30;36.20
70366;DHT22;57787;48.216;12.396;2023-05-07T14:20:51;26.20;37.20
70366;DHT22;57787;48.216;12.396;2023-05-07T14:23:17;26.30;36.60
70366;DHT22;57787;48.216;12.396;2023-05-07T14:25:46;26.30;37.10
70366;DHT22;57787;48.216;12.396;2023-05-07T14:28:14;26.40;36.30
70366;DHT22;57787;48.216;12.396;2023-05-07T14:30:41;26.40;35.50
70366;DHT22;57787;48.216;12.396;2023-05-07T14:33:09;26.30;37.70
70366;DHT22;57787;48.216;12.396;2023-05-07T14:35:36;26.30;36.00
70366;DHT22;57787;48.216;12.396;2023-05-07T14:38:02;26.30;35.80
70366;DHT22;57787;48.216;12.396;2023-05-07T14:40:30;26.30;36.60
70366;DHT22;57787;48.216;12.396;2023-05-07T14:42:56;26.30;36.20
70366;DHT22;57787;48.216;12.396;2023-05-07T14:45:25;26.10;35.80
70366;DHT22;57787;48.216;12.396;2023-05-07T14:47:52;26.00;38.00
70366;DHT22;57787;48.216;12.396;2023-05-07T14:50:18;25.80;36.60
70366;DHT22;57787;48.216;12.396;2023-05-07T14:52:45;25.60;37.30
70366;DHT22;57787;48.216;12.396;2023-05-07T14:55:12;25.40;37.50
70366;DHT22;57787;48.216;12.396;2023-05-07T14:57:39;25.30;37.20
70366;DHT22;57787;48.216;12.396;2023-05-07T15:00:07;25.10;37.20
70366;DHT22;57787;48.216;12.396;2023-05-07T15:02:34;25.10;38.00
70366;DHT22;57787;48.216;12.396;2023-05-07T15:05:01;25.00;38.70
70366;DHT22;57787;48.216;12.396;2023-05-07T15:07:30;25.00;39.70
70366;DHT22;57787;48.216;12.396;2023-05-07T15:09:59;24.80;38.80
70366;DHT22;57787;48.216;12.396;2023-05-07T15:12:26;24.80;38.30
70366;DHT22;57787;48.216;12.396;2023-05-07T15:14:54;24.70;39.00
70366;DHT22;57787;48.216;12.396;2023-05-07T15:17:21;24.60;40.70
70366;DHT22;57787;48.216;12.396;2023-05-07T15:19:48;24.70;39.10
70366;DHT22;57787;48.216;12.396;2023-05-07T15:22:16;24.70;39.10
70366;DHT22;57787;48.216;12.396;2023-05-07T15:24:43;24.70;39.40
70366;DHT22;57787;48.216;12.396;2023-05-07T15:27:10;24.70;39.90
70366;DHT22;57787;48.216;12.396;2023-05-07T15:29:37;24.80;40.20
70366;DHT22;57787;48.216;12.396;2023-05-07T15:32:08;24.80;38.50
70366;DHT22;57787;48.216;12.396;2023-05-07T15:34:35;24.70;38.70
70366;DHT22;57787;48.216;12.396;2023-05-07T15:37:02;24.60;40.50
70366;DHT22;57787;48.216;12.396;2023-05-07T15:39:31;24.70;40.30
70366;DHT22;57787;48.216;12.396;2023-05-07T15:41:58;24.60;41.90